sensor_id;sensor_type;location;lat;lon;timestamp;P1;durP1;ratioP1;P2;durP2;ratioP2
20185;SDS011;10252;48.792;8.582;2023-04-09T00:01:48;8.90;;;7.03;;
20185;SDS011;10252;48.792;8.582;2023-04-09T00:06:49;9.50;;;7.18;;
20185;SDS011;10252;48.792;8.582;2023-04-09T00:11:50;10.85;;;7.72;;
20185;SDS011;10252;48.792;8.582;2023-04-09T00:16:51;9.02;;;6.88;;
20185;SDS011;10252;48.792;8.582;2023-04-09T00:21:53;8.75;;;6.90;;
20185;SDS011;10252;48.792;8.582;2023-04-09T00:26:55;11.00;;;7.43;;
20185;SDS011;10252;48.792;8.582;2023-04-09T00:31:56;9.52;;;7.25;;
20185;SDS011;10252;48.792;8.582;2023-04-09T00:36:57;11.20;;;7.15;;
20185;SDS011;10252;48.792;8.582;2023-04-09T00:42:00;11.70;;;8.80;;
20185;SDS011;10252;48.792;8.582;2023-04-09T00:47:02;9.52;;;7.50;;
20185;SDS011;10252;48.792;8.582;2023-04-09T00:52:03;9.70;;;7.97;;
20185;SDS011;10252;48.792;8.582;2023-04-09T00:57:04;10.95;;;8.68;;
20185;SDS011;10252;48.792;8.582;2023-04-09T01:02:05;12.63;;;7.78;;
20185;SDS011;10252;48.792;8.582;2023-04-09T01:07:10;10.23;;;7.40;;
20185;SDS011;10252;48.792;8.582;2023-04-09T01:17:23;10.00;;;8.15;;
20185;SDS011;10252;48.792;8.582;2023-04-09T01:27:28;13.38;;;9.00;;
20185;SDS011;10252;48.792;8.582;2023-04-09T01:32:34;12.80;;;9.18;;
20185;SDS011;10252;48.792;8.582;2023-04-09T01:37:36;11.30;;;9.60;;
20185;SDS011;10252;48.792;8.582;2023-04-09T01:42:38;11.75;;;8.48;;
20185;SDS011;10252;48.792;8.582;2023-04-09T01:47:41;13.63;;;8.10;;
20185;SDS011;10252;48.792;8.582;2023-04-09T01:52:42;13.10;;;8.30;;
20185;SDS011;10252;48.792;8.582;2023-04-09T01:57:43;12.73;;;8.77;;
20185;SDS011;10252;48.792;8.582;2023-04-09T02:02:52;14.52;;;9.48;;
20185;SDS011;10252;48.792;8.582;2023-04-09T02:07:55;13.07;;;9.20;;
20185;SDS011;10252;48.792;8.582;2023-04-09T02:12:56;13.20;;;9.13;;
20185;SDS011;10252;48.792;8.582;2023-04-09T02:17:58;13.85;;;8.90;;
20185;SDS011;10252;48.792;8.582;2023-04-09T02:23:00;11.35;;;9.23;;
20185;SDS011;10252;48.792;8.582;2023-04-09T02:28:01;11.07;;;8.80;;
20185;SDS011;10252;48.792;8.582;2023-04-09T02:33:02;14.50;;;9.13;;
20185;SDS011;10252;48.792;8.582;2023-04-09T02:38:03;13.82;;;9.23;;
20185;SDS011;10252;48.792;8.582;2023-04-09T02:43:04;13.18;;;8.93;;
20185;SDS011;10252;48.792;8.582;2023-04-09T02:48:05;15.15;;;9.32;;
20185;SDS011;10252;48.792;8.582;2023-04-09T02:53:08;14.15;;;9.75;;
20185;SDS011;10252;48.792;8.582;2023-04-09T02:58:09;13.77;;;9.45;;
20185;SDS011;10252;48.792;8.582;2023-04-09T03:03:11;14.10;;;9.75;;
20185;SDS011;10252;48.792;8.582;2023-04-09T03:08:12;13.20;;;9.32;;
20185;SDS011;10252;48.792;8.582;2023-04-09T03:13:13;14.88;;;9.80;;
20185;SDS011;10252;48.792;8.582;2023-04-09T03:18:14;13.30;;;9.27;;
20185;SDS011;10252;48.792;8.582;2023-04-09T03:23:15;12.93;;;9.27;;
20185;SDS011;10252;48.792;8.582;2023-04-09T03:28:20;15.35;;;10.00;;
20185;SDS011;10252;48.792;8.582;2023-04-09T03:33:25;12.82;;;8.65;;
20185;SDS011;10252;48.792;8.582;2023-04-09T03:38:28;13.85;;;9.77;;
20185;SDS011;10252;48.792;8.582;2023-04-09T03:43:31;13.32;;;8.82;;
20185;SDS011;10252;48.792;8.582;2023-04-09T03:48:32;12.57;;;9.23;;
20185;SDS011;10252;48.792;8.582;2023-04-09T03:53:34;15.13;;;9.50;;
20185;SDS011;10252;48.792;8.582;2023-04-09T03:58:38;14.68;;;9.73;;
20185;SDS011;10252;48.792;8.582;2023-04-09T04:03:41;13.45;;;9.63;;
20185;SDS011;10252;48.792;8.582;2023-04-09T04:08:47;14.73;;;9.77;;
20185;SDS011;10252;48.792;8.582;2023-04-09T04:13:49;16.70;;;9.27;;
20185;SDS011;10252;48.792;8.582;2023-04-09T04:18:51;16.13;;;10.02;;
20185;SDS011;10252;48.792;8.582;2023-04-09T04:23:53;14.57;;;9.50;;
20185;SDS011;10252;48.792;8.582;2023-04-09T04:28:58;13.98;;;9.32;;
20185;SDS011;10252;48.792;8.582;2023-04-09T04:34:17;15.32;;;10.10;;
20185;SDS011;10252;48.792;8.582;2023-04-09T04:39:22;14.75;;;9.57;;
20185;SDS011;10252;48.792;8.582;2023-04-09T04:44:28;19.05;;;11.82;;
20185;SDS011;10252;48.792;8.582;2023-04-09T04:49:44;15.30;;;11.20;;
20185;SDS011;10252;48.792;8.582;2023-04-09T04:54:46;14.27;;;10.30;;
20185;SDS011;10252;48.792;8.582;2023-04-09T04:59:52;15.60;;;10.60;;
20185;SDS011;10252;48.792;8.582;2023-04-09T05:04:54;15.15;;;10.25;;
20185;SDS011;10252;48.792;8.582;2023-04-09T05:10:04;17.17;;;11.35;;
20185;SDS011;10252;48.792;8.582;2023-04-09T05:15:10;22.00;;;12.57;;
20185;SDS011;10252;48.792;8.582;2023-04-09T05:20:12;20.25;;;12.93;;
20185;SDS011;10252;48.792;8.582;2023-04-09T05:25:48;24.63;;;13.73;;
20185;SDS011;10252;48.792;8.582;2023-04-09T05:31:07;22.45;;;13.35;;
20185;SDS011;10252;48.792;8.582;2023-04-09T05:36:15;24.20;;;15.32;;
20185;SDS011;10252;48.792;8.582;2023-04-09T05:41:16;23.83;;;12.80;;
20185;SDS011;10252;48.792;8.582;2023-04-09T05:46:33;18.75;;;11.23;;
20185;SDS011;10252;48.792;8.582;2023-04-09T05:51:34;24.00;;;14.30;;
20185;SDS011;10252;48.792;8.582;2023-04-09T05:56:37;15.68;;;10.85;;
20185;SDS011;10252;48.792;8.582;2023-04-09T06:01:39;16.75;;;11.05;;
20185;SDS011;10252;48.792;8.582;2023-04-09T06:06:40;15.45;;;10.40;;
20185;SDS011;10252;48.792;8.582;2023-04-09T06:11:41;14.70;;;10.25;;
20185;SDS011;10252;48.792;8.582;2023-04-09T06:16:42;13.57;;;9.38;;
20185;SDS011;10252;48.792;8.582;2023-04-09T06:21:43;16.20;;;10.35;;
20185;SDS011;10252;48.792;8.582;2023-04-09T06:26:45;13.68;;;10.20;;
20185;SDS011;10252;48.792;8.582;2023-04-09T06:31:46;13.23;;;9.35;;
20185;SDS011;10252;48.792;8.582;2023-04-09T06:36:47;14.05;;;10.07;;
20185;SDS011;10252;48.792;8.582;2023-04-09T06:41:48;18.10;;;12.00;;
20185;SDS011;10252;48.792;8.582;2023-04-09T06:46:59;17.13;;;11.80;;
20185;SDS011;10252;48.792;8.582;2023-04-09T06:52:00;16.58;;;11.20;;
20185;SDS011;10252;48.792;8.582;2023-04-09T06:57:01;18.55;;;12.13;;
20185;SDS011;10252;48.792;8.582;2023-04-09T07:02:03;19.85;;;13.45;;
20185;SDS011;10252;48.792;8.582;2023-04-09T07:07:04;18.80;;;12.18;;
20185;SDS011;10252;48.792;8.582;2023-04-09T07:12:05;21.20;;;12.90;;
20185;SDS011;10252;48.792;8.582;2023-04-09T07:17:07;20.92;;;13.40;;
20185;SDS011;10252;48.792;8.582;2023-04-09T07:22:08;22.27;;;13.77;;
20185;SDS011;10252;48.792;8.582;2023-04-09T07:27:09;19.40;;;12.80;;
20185;SDS011;10252;48.792;8.582;2023-04-09T07:32:10;17.25;;;12.02;;
20185;SDS011;10252;48.792;8.582;2023-04-09T07:37:11;16.20;;;11.80;;
20185;SDS011;10252;48.792;8.582;2023-04-09T07:42:12;13.77;;;9.98;;
20185;SDS011;10252;48.792;8.582;2023-04-09T07:47:13;13.90;;;10.55;;
20185;SDS011;10252;48.792;8.582;2023-04-09T07:52:15;12.13;;;9.85;;
20185;SDS011;10252;48.792;8.582;2023-04-09T07:57:16;14.18;;;10.10;;
20185;SDS011;10252;48.792;8.582;2023-04-09T08:02:17;11.23;;;9.02;;
20185;SDS011;10252;48.792;8.582;2023-04-09T08:07:18;10.48;;;9.38;;
20185;SDS011;10252;48.792;8.582;2023-04-09T08:12:19;6.53;;;5.82;;
20185;SDS011;10252;48.792;8.582;2023-04-09T08:17:20;4.75;;;4.25;;
20185;SDS011;10252;48.792;8.582;2023-04-09T08:22:21;5.35;;;4.55;;
20185;SDS011;10252;48.792;8.582;2023-04-09T08:27:22;6.60;;;5.05;;
20185;SDS011;10252;48.792;8.582;2023-04-09T08:32:23;5.65;;;4.82;;
20185;SDS011;10252;48.792;8.582;2023-04-09T08:37:24;5.85;;;5.03;;
20185;SDS011;10252;48.792;8.582;2023-04-09T08:42:25;4.95;;;4.10;;
20185;SDS011;10252;48.792;8.582;2023-04-09T08:47:27;5.75;;;5.15;;
20185;SDS011;10252;48.792;8.582;2023-04-09T08:52:32;5.97;;;4.90;;
20185;SDS011;10252;48.792;8.582;2023-04-09T08:57:37;6.07;;;5.13;;
20185;SDS011;10252;48.792;8.582;2023-04-09T09:02:38;5.60;;;4.53;;
20185;SDS011;10252;48.792;8.582;2023-04-09T09:07:43;5.80;;;4.55;;
20185;SDS011;10252;48.792;8.582;2023-04-09T09:12:53;10.48;;;6.97;;
20185;SDS011;10252;48.792;8.582;2023-04-09T09:17:55;4.22;;;3.80;;
20185;SDS011;10252;48.792;8.582;2023-04-09T09:22:56;4.13;;;3.53;;
20185;SDS011;10252;48.792;8.582;2023-04-09T09:28:08;5.18;;;4.60;;
20185;SDS011;10252;48.792;8.582;2023-04-09T09:33:10;4.95;;;4.03;;
20185;SDS011;10252;48.792;8.582;2023-04-09T09:38:11;4.80;;;4.05;;
20185;SDS011;10252;48.792;8.582;2023-04-09T09:43:13;5.97;;;4.85;;
20185;SDS011;10252;48.792;8.582;2023-04-09T09:48:14;5.40;;;4.43;;
20185;SDS011;10252;48.792;8.582;2023-04-09T09:53:15;4.22;;;3.60;;
20185;SDS011;10252;48.792;8.582;2023-04-09T10:03:19;4.82;;;4.43;;
20185;SDS011;10252;48.792;8.582;2023-04-09T10:08:21;4.68;;;4.18;;
20185;SDS011;10252;48.792;8.582;2023-04-09T10:13:39;3.17;;;2.88;;
20185;SDS011;10252;48.792;8.582;2023-04-09T10:18:41;2.90;;;2.63;;
20185;SDS011;10252;48.792;8.582;2023-04-09T10:23:43;3.05;;;2.70;;
20185;SDS011;10252;48.792;8.582;2023-04-09T10:28:44;3.38;;;2.85;;
20185;SDS011;10252;48.792;8.582;2023-04-09T10:33:45;3.38;;;2.90;;
20185;SDS011;10252;48.792;8.582;2023-04-09T10:38:46;4.63;;;2.55;;
20185;SDS011;10252;48.792;8.582;2023-04-09T10:43:50;3.97;;;2.65;;
20185;SDS011;10252;48.792;8.582;2023-04-09T10:54:34;3.28;;;2.97;;
20185;SDS011;10252;48.792;8.582;2023-04-09T10:59:39;4.07;;;3.30;;
20185;SDS011;10252;48.792;8.582;2023-04-09T11:09:54;2.85;;;2.55;;
20185;SDS011;10252;48.792;8.582;2023-04-09T11:14:55;4.32;;;3.65;;
20185;SDS011;10252;48.792;8.582;2023-04-09T11:19:56;4.15;;;3.75;;
20185;SDS011;10252;48.792;8.582;2023-04-09T11:24:57;5.18;;;4.68;;
20185;SDS011;10252;48.792;8.582;2023-04-09T11:29:58;4.40;;;4.00;;
20185;SDS011;10252;48.792;8.582;2023-04-09T11:34:59;4.90;;;4.40;;
20185;SDS011;10252;48.792;8.582;2023-04-09T11:40:01;4.60;;;3.95;;
20185;SDS011;10252;48.792;8.582;2023-04-09T11:45:02;4.57;;;4.10;;
20185;SDS011;10252;48.792;8.582;2023-04-09T11:50:05;4.78;;;4.20;;
20185;SDS011;10252;48.792;8.582;2023-04-09T11:55:07;4.35;;;3.92;;
20185;SDS011;10252;48.792;8.582;2023-04-09T12:00:09;4.82;;;4.13;;
20185;SDS011;10252;48.792;8.582;2023-04-09T12:05:11;4.53;;;4.13;;
20185;SDS011;10252;48.792;8.582;2023-04-09T12:15:18;6.38;;;3.97;;
20185;SDS011;10252;48.792;8.582;2023-04-09T12:20:27;5.22;;;4.20;;
20185;SDS011;10252;48.792;8.582;2023-04-09T12:25:29;4.40;;;3.97;;
20185;SDS011;10252;48.792;8.582;2023-04-09T12:30:30;4.80;;;4.30;;
20185;SDS011;10252;48.792;8.582;2023-04-09T12:35:31;4.75;;;4.25;;
20185;SDS011;10252;48.792;8.582;2023-04-09T12:40:36;4.55;;;4.13;;
20185;SDS011;10252;48.792;8.582;2023-04-09T12:45:37;4.03;;;3.63;;
20185;SDS011;10252;48.792;8.582;2023-04-09T12:50:39;5.63;;;5.05;;
20185;SDS011;10252;48.792;8.582;2023-04-09T12:55:40;4.85;;;3.97;;
20185;SDS011;10252;48.792;8.582;2023-04-09T13:00:41;5.32;;;4.75;;
20185;SDS011;10252;48.792;8.582;2023-04-09T13:05:42;4.65;;;4.25;;
20185;SDS011;10252;48.792;8.582;2023-04-09T13:10:43;5.22;;;4.72;;
20185;SDS011;10252;48.792;8.582;2023-04-09T13:15:45;5.50;;;5.00;;
20185;SDS011;10252;48.792;8.582;2023-04-09T13:20:46;5.10;;;4.53;;
20185;SDS011;10252;48.792;8.582;2023-04-09T13:25:47;5.25;;;4.75;;
20185;SDS011;10252;48.792;8.582;2023-04-09T13:30:48;4.80;;;4.30;;
20185;SDS011;10252;48.792;8.582;2023-04-09T13:35:50;4.65;;;4.20;;
20185;SDS011;10252;48.792;8.582;2023-04-09T13:40:51;5.15;;;4.65;;
20185;SDS011;10252;48.792;8.582;2023-04-09T13:45:55;5.13;;;4.68;;
20185;SDS011;10252;48.792;8.582;2023-04-09T13:50:59;5.72;;;4.70;;
20185;SDS011;10252;48.792;8.582;2023-04-09T13:56:00;5.78;;;5.13;;
20185;SDS011;10252;48.792;8.582;2023-04-09T14:01:01;5.28;;;4.53;;
20185;SDS011;10252;48.792;8.582;2023-04-09T14:06:03;4.72;;;4.20;;
20185;SDS011;10252;48.792;8.582;2023-04-09T14:11:04;4.53;;;4.13;;
20185;SDS011;10252;48.792;8.582;2023-04-09T14:16:06;5.43;;;4.50;;
20185;SDS011;10252;48.792;8.582;2023-04-09T14:21:07;4.63;;;4.20;;
20185;SDS011;10252;48.792;8.582;2023-04-09T14:26:08;4.80;;;4.40;;
20185;SDS011;10252;48.792;8.582;2023-04-09T14:31:09;5.68;;;5.00;;
20185;SDS011;10252;48.792;8.582;2023-04-09T14:36:10;5.72;;;4.50;;
20185;SDS011;10252;48.792;8.582;2023-04-09T14:41:11;4.38;;;3.97;;
20185;SDS011;10252;48.792;8.582;2023-04-09T14:46:12;4.55;;;4.15;;
20185;SDS011;10252;48.792;8.582;2023-04-09T14:51:13;5.75;;;4.07;;
20185;SDS011;10252;48.792;8.582;2023-04-09T14:56:14;4.07;;;3.67;;
20185;SDS011;10252;48.792;8.582;2023-04-09T15:01:18;4.63;;;3.70;;
20185;SDS011;10252;48.792;8.582;2023-04-09T15:06:20;3.50;;;3.20;;
20185;SDS011;10252;48.792;8.582;2023-04-09T15:11:21;6.75;;;4.07;;
20185;SDS011;10252;48.792;8.582;2023-04-09T15:16:22;4.57;;;4.03;;
20185;SDS011;10252;48.792;8.582;2023-04-09T15:21:24;3.85;;;3.47;;
20185;SDS011;10252;48.792;8.582;2023-04-09T15:26:26;3.97;;;3.63;;
20185;SDS011;10252;48.792;8.582;2023-04-09T15:31:27;3.95;;;3.55;;
20185;SDS011;10252;48.792;8.582;2023-04-09T15:36:29;3.75;;;3.35;;
20185;SDS011;10252;48.792;8.582;2023-04-09T15:41:31;3.67;;;3.38;;
20185;SDS011;10252;48.792;8.582;2023-04-09T15:46:33;3.90;;;3.50;;
20185;SDS011;10252;48.792;8.582;2023-04-09T15:51:34;4.00;;;3.60;;
20185;SDS011;10252;48.792;8.582;2023-04-09T15:56:35;3.47;;;3.17;;
20185;SDS011;10252;48.792;8.582;2023-04-09T16:01:39;3.90;;;3.50;;
20185;SDS011;10252;48.792;8.582;2023-04-09T16:06:40;7.40;;;5.00;;
20185;SDS011;10252;48.792;8.582;2023-04-09T16:11:41;5.68;;;5.00;;
20185;SDS011;10252;48.792;8.582;2023-04-09T16:16:42;7.18;;;6.47;;
20185;SDS011;10252;48.792;8.582;2023-04-09T16:21:46;5.82;;;4.57;;
20185;SDS011;10252;48.792;8.582;2023-04-09T16:26:48;5.68;;;4.95;;
20185;SDS011;10252;48.792;8.582;2023-04-09T16:31:49;4.40;;;3.92;;
20185;SDS011;10252;48.792;8.582;2023-04-09T16:36:51;4.38;;;3.83;;
20185;SDS011;10252;48.792;8.582;2023-04-09T16:41:52;4.55;;;3.95;;
20185;SDS011;10252;48.792;8.582;2023-04-09T16:46:53;6.47;;;5.88;;
20185;SDS011;10252;48.792;8.582;2023-04-09T16:51:55;4.35;;;3.95;;
20185;SDS011;10252;48.792;8.582;2023-04-09T16:56:56;4.20;;;3.55;;
20185;SDS011;10252;48.792;8.582;2023-04-09T17:01:57;3.58;;;3.20;;
20185;SDS011;10252;48.792;8.582;2023-04-09T17:06:59;17.67;;;11.80;;
20185;SDS011;10252;48.792;8.582;2023-04-09T17:12:00;4.43;;;3.58;;
20185;SDS011;10252;48.792;8.582;2023-04-09T17:17:01;6.25;;;4.70;;
20185;SDS011;10252;48.792;8.582;2023-04-09T17:22:03;10.75;;;5.72;;
20185;SDS011;10252;48.792;8.582;2023-04-09T17:27:04;5.85;;;3.97;;
20185;SDS011;10252;48.792;8.582;2023-04-09T17:32:06;11.13;;;7.43;;
20185;SDS011;10252;48.792;8.582;2023-04-09T17:37:07;6.30;;;3.75;;
20185;SDS011;10252;48.792;8.582;2023-04-09T17:42:08;3.55;;;3.13;;
20185;SDS011;10252;48.792;8.582;2023-04-09T17:47:10;3.35;;;3.00;;
20185;SDS011;10252;48.792;8.582;2023-04-09T17:52:12;3.80;;;3.13;;
20185;SDS011;10252;48.792;8.582;2023-04-09T17:57:13;3.03;;;2.72;;
20185;SDS011;10252;48.792;8.582;2023-04-09T18:02:14;7.63;;;3.88;;
20185;SDS011;10252;48.792;8.582;2023-04-09T18:07:15;3.78;;;3.40;;
20185;SDS011;10252;48.792;8.582;2023-04-09T18:12:16;4.18;;;3.78;;
20185;SDS011;10252;48.792;8.582;2023-04-09T18:17:18;7.70;;;4.10;;
20185;SDS011;10252;48.792;8.582;2023-04-09T18:22:19;3.80;;;3.40;;
20185;SDS011;10252;48.792;8.582;2023-04-09T18:27:20;3.65;;;3.20;;
20185;SDS011;10252;48.792;8.582;2023-04-09T18:32:21;4.28;;;3.50;;
20185;SDS011;10252;48.792;8.582;2023-04-09T18:37:24;5.13;;;3.45;;
20185;SDS011;10252;48.792;8.582;2023-04-09T18:42:25;4.72;;;4.03;;
20185;SDS011;10252;48.792;8.582;2023-04-09T18:47:26;4.57;;;3.80;;
20185;SDS011;10252;48.792;8.582;2023-04-09T18:52:27;6.50;;;4.85;;
20185;SDS011;10252;48.792;8.582;2023-04-09T18:57:28;5.82;;;4.25;;
20185;SDS011;10252;48.792;8.582;2023-04-09T19:02:29;5.60;;;4.35;;
20185;SDS011;10252;48.792;8.582;2023-04-09T19:07:31;5.45;;;4.10;;
20185;SDS011;10252;48.792;8.582;2023-04-09T19:12:32;5.95;;;4.97;;
20185;SDS011;10252;48.792;8.582;2023-04-09T19:17:33;11.13;;;5.10;;
20185;SDS011;10252;48.792;8.582;2023-04-09T19:22:34;7.63;;;5.30;;
20185;SDS011;10252;48.792;8.582;2023-04-09T19:27:37;6.47;;;4.50;;
20185;SDS011;10252;48.792;8.582;2023-04-09T19:32:38;6.28;;;4.75;;
20185;SDS011;10252;48.792;8.582;2023-04-09T19:37:43;6.40;;;5.13;;
20185;SDS011;10252;48.792;8.582;2023-04-09T19:42:44;8.32;;;4.78;;
20185;SDS011;10252;48.792;8.582;2023-04-09T19:47:45;6.15;;;4.85;;
20185;SDS011;10252;48.792;8.582;2023-04-09T19:52:46;6.47;;;5.15;;
20185;SDS011;10252;48.792;8.582;2023-04-09T19:57:47;5.95;;;4.45;;
20185;SDS011;10252;48.792;8.582;2023-04-09T20:02:48;5.90;;;4.68;;
20185;SDS011;10252;48.792;8.582;2023-04-09T20:07:50;6.70;;;4.85;;
20185;SDS011;10252;48.792;8.582;2023-04-09T20:12:54;8.95;;;5.53;;
20185;SDS011;10252;48.792;8.582;2023-04-09T20:17:55;8.27;;;5.82;;
20185;SDS011;10252;48.792;8.582;2023-04-09T20:22:56;6.40;;;4.47;;
20185;SDS011;10252;48.792;8.582;2023-04-09T20:27:57;9.95;;;6.15;;
20185;SDS011;10252;48.792;8.582;2023-04-09T20:32:58;7.75;;;5.70;;
20185;SDS011;10252;48.792;8.582;2023-04-09T20:38:00;8.38;;;5.03;;
20185;SDS011;10252;48.792;8.582;2023-04-09T20:43:01;6.25;;;4.95;;
20185;SDS011;10252;48.792;8.582;2023-04-09T20:48:02;6.75;;;4.97;;
20185;SDS011;10252;48.792;8.582;2023-04-09T20:53:04;5.78;;;5.00;;
20185;SDS011;10252;48.792;8.582;2023-04-09T20:58:05;7.30;;;5.25;;
20185;SDS011;10252;48.792;8.582;2023-04-09T21:03:06;6.47;;;5.07;;
20185;SDS011;10252;48.792;8.582;2023-04-09T21:08:08;9.18;;;6.25;;
20185;SDS011;10252;48.792;8.582;2023-04-09T21:13:14;9.38;;;6.70;;
20185;SDS011;10252;48.792;8.582;2023-04-09T21:18:15;7.85;;;5.15;;
20185;SDS011;10252;48.792;8.582;2023-04-09T21:23:17;7.20;;;5.35;;
20185;SDS011;10252;48.792;8.582;2023-04-09T21:28:18;8.25;;;5.32;;
20185;SDS011;10252;48.792;8.582;2023-04-09T21:33:19;8.07;;;5.78;;
20185;SDS011;10252;48.792;8.582;2023-04-09T21:38:20;8.23;;;6.10;;
20185;SDS011;10252;48.792;8.582;2023-04-09T21:43:22;7.75;;;5.80;;
20185;SDS011;10252;48.792;8.582;2023-04-09T21:48:23;7.65;;;5.75;;
20185;SDS011;10252;48.792;8.582;2023-04-09T21:53:25;7.82;;;5.43;;
20185;SDS011;10252;48.792;8.582;2023-04-09T21:58:28;7.60;;;5.53;;
20185;SDS011;10252;48.792;8.582;2023-04-09T22:03:29;11.30;;;5.97;;
20185;SDS011;10252;48.792;8.582;2023-04-09T22:08:30;9.50;;;6.63;;
20185;SDS011;10252;48.792;8.582;2023-04-09T22:13:31;8.80;;;6.15;;
20185;SDS011;10252;48.792;8.582;2023-04-09T22:18:33;9.43;;;6.50;;
20185;SDS011;10252;48.792;8.582;2023-04-09T22:23:34;8.48;;;6.10;;
20185;SDS011;10252;48.792;8.582;2023-04-09T22:28:35;7.85;;;6.18;;
20185;SDS011;10252;48.792;8.582;2023-04-09T22:33:39;9.70;;;6.38;;
20185;SDS011;10252;48.792;8.582;2023-04-09T22:38:40;9.02;;;6.38;;
20185;SDS011;10252;48.792;8.582;2023-04-09T22:43:41;7.40;;;6.38;;
20185;SDS011;10252;48.792;8.582;2023-04-09T22:48:42;9.75;;;5.95;;
20185;SDS011;10252;48.792;8.582;2023-04-09T22:53:45;9.10;;;6.15;;
20185;SDS011;10252;48.792;8.582;2023-04-09T22:58:47;9.27;;;6.20;;
20185;SDS011;10252;48.792;8.582;2023-04-09T23:03:48;8.80;;;6.47;;
20185;SDS011;10252;48.792;8.582;2023-04-09T23:08:49;9.93;;;6.85;;
20185;SDS011;10252;48.792;8.582;2023-04-09T23:13:51;9.77;;;6.82;;
20185;SDS011;10252;48.792;8.582;2023-04-09T23:18:52;9.25;;;7.07;;
20185;SDS011;10252;48.792;8.582;2023-04-09T23:23:53;10.18;;;6.78;;
20185;SDS011;10252;48.792;8.582;2023-04-09T23:28:54;11.55;;;7.07;;
20185;SDS011;10252;48.792;8.582;2023-04-09T23:33:55;11.85;;;7.22;;
20185;SDS011;10252;48.792;8.582;2023-04-09T23:38:56;11.50;;;6.90;;
20185;SDS011;10252;48.792;8.582;2023-04-09T23:43:57;10.27;;;6.93;;
20185;SDS011;10252;48.792;8.582;2023-04-09T23:48:58;10.90;;;7.40;;
20185;SDS011;10252;48.792;8.582;2023-04-09T23:53:59;11.18;;;7.53;;
20185;SDS011;10252;48.792;8.582;2023-04-09T23:59:00;11.38;;;7.50;;
